Time;durP1;ratioP1;P1;durP2;ratioP2;P2;SDS_P1;SDS_P2;PMS_P1;PMS_P2;Temp;Humidity;BMP_temperature;BMP_pressure;BME280_temperature;BME280_humidity;BME280_pressure;Samples;Min_cycle;Max_cycle;Signal;HPM_P1;HPM_P2
2023/02/25 00:00:18;;;;;;;9.45;2.83;;;;;;;4.42;77.39;101150.81;6107005;19;20282;-76
2023/02/25 00:02:23;;;;;;;17.92;2.97;;;;;;;4.43;76.78;101152.56;6105373;19;20018;-75
2023/02/25 00:04:32;;;;;;;7.70;2.20;;;;;;;4.49;76.33;101152.50;6105654;19;20070;-75
2023/02/25 00:06:37;;;;;;;11.57;2.50;;;;;;;4.48;76.23;101153.38;6102685;19;20049;-75
2023/02/25 00:08:48;;;;;;;16.77;3.35;;;;;;;4.52;75.83;101149.84;6106918;19;20559;-75
2023/02/25 00:10:59;;;;;;;12.82;3.70;;;;;;;4.54;75.74;101151.56;6082694;19;20007;-74
2023/02/25 00:13:07;;;;;;;15.93;2.67;;;;;;;4.58;75.58;101152.38;6104235;19;20320;-74
2023/02/25 00:15:22;;;;;;;8.82;2.58;;;;;;;4.53;75.75;101148.97;6104976;19;20021;-74
2023/02/25 00:17:26;;;;;;;6.55;4.05;;;;;;;4.52;75.92;101150.72;6104990;19;20399;-73
2023/02/25 00:19:34;;;;;;;9.85;2.97;;;;;;;4.51;76.03;101150.75;6106108;19;20006;-75
2023/02/25 00:21:39;;;;;;;10.90;2.63;;;;;;;4.52;75.71;101147.25;6081495;19;20014;-74
2023/02/25 00:23:46;;;;;;;18.75;2.95;;;;;;;4.46;76.17;101144.72;6106441;19;20019;-74
2023/02/25 00:25:51;;;;;;;14.02;2.80;;;;;;;4.47;76.26;101142.09;6106504;19;20025;-74
2023/02/25 00:27:56;;;;;;;12.55;2.30;;;;;;;4.53;76.07;101146.38;6108169;19;20483;-75
2023/02/25 00:30:01;;;;;;;18.17;3.92;;;;;;;4.51;76.82;101150.75;6083900;19;20031;-76
2023/02/25 00:32:06;;;;;;;14.32;3.45;;;;;;;4.60;76.44;101167.09;6107319;19;20039;-76
2023/02/25 00:34:11;;;;;;;16.15;3.58;;;;;;;4.55;76.66;101168.91;6105730;19;20017;-74
2023/02/25 00:36:21;;;;;;;15.48;3.00;;;;;;;4.44;75.83;101159.47;6106497;19;20003;-76
2023/02/25 00:38:27;;;;;;;8.45;1.95;;;;;;;4.31;75.11;101151.78;6106328;19;20101;-76
2023/02/25 00:40:34;;;;;;;8.10;2.00;;;;;;;4.29;74.83;101150.97;6103775;19;20015;-76
2023/02/25 00:42:41;;;;;;;3.50;1.60;;;;;;;4.26;73.41;101153.56;6106179;19;20473;-75
2023/02/25 00:44:48;;;;;;;2.30;1.20;;;;;;;4.26;71.87;101161.38;6107147;19;20023;-74
2023/02/25 00:46:53;;;;;;;7.88;2.33;;;;;;;4.27;71.12;101160.53;6099795;19;20357;-75
2023/02/25 00:48:58;;;;;;;7.53;2.00;;;;;;;4.23;71.34;101153.59;6105618;19;20076;-75
2023/02/25 00:51:09;;;;;;;4.32;1.50;;;;;;;4.23;71.95;101155.34;6103234;19;20015;-75
2023/02/25 00:53:17;;;;;;;8.27;2.60;;;;;;;4.27;72.22;101160.53;6101871;19;20034;-75
2023/02/25 00:55:22;;;;;;;7.50;1.58;;;;;;;4.20;73.57;101157.97;6107053;19;20074;-75
2023/02/25 00:57:27;;;;;;;10.90;2.00;;;;;;;4.22;75.04;101170.09;6106588;19;20018;-75
2023/02/25 00:59:34;;;;;;;3.47;1.77;;;;;;;4.26;75.69;101156.19;6080248;19;20010;-75
2023/02/25 01:01:40;;;;;;;11.25;2.65;;;;;;;4.26;76.20;101153.56;6106551;19;20038;-74
2023/02/25 01:03:45;;;;;;;9.27;3.05;;;;;;;4.27;75.46;101157.91;6105384;19;20510;-75
2023/02/25 01:05:50;;;;;;;13.25;2.53;;;;;;;4.26;76.09;101160.53;6106167;19;20021;-75
2023/02/25 01:07:55;;;;;;;8.57;2.53;;;;;;;4.23;75.81;101174.41;6106019;19;20035;-76
2023/02/25 01:10:03;;;;;;;7.97;2.15;;;;;;;4.21;76.13;101173.56;6107171;19;20078;-74
2023/02/25 01:12:09;;;;;;;6.03;1.75;;;;;;;4.21;75.87;101173.56;6106862;19;20106;-74
2023/02/25 01:14:17;;;;;;;10.68;2.53;;;;;;;4.25;75.82;101172.66;6101990;19;20006;-74
2023/02/25 01:16:26;;;;;;;7.38;2.92;;;;;;;4.26;76.20;101176.13;6103791;19;20017;-77
2023/02/25 01:18:31;;;;;;;11.25;2.17;;;;;;;4.29;76.38;101182.19;6103823;19;20035;-75
2023/02/25 01:20:40;;;;;;;16.52;2.83;;;;;;;4.25;76.83;101175.28;6082993;19;20027;-74
2023/02/25 01:22:45;;;;;;;8.90;2.50;;;;;;;4.30;76.03;101177.84;6103969;19;20010;-74
2023/02/25 01:24:50;;;;;;;15.63;2.58;;;;;;;4.33;76.12;101175.19;6101271;19;20011;-75
2023/02/25 01:27:00;;;;;;;6.30;1.85;;;;;;;4.35;75.39;101176.91;6107006;19;20010;-76
2023/02/25 01:29:09;;;;;;;9.40;1.90;;;;;;;4.35;75.39;101171.72;6102193;19;20017;-75
2023/02/25 01:31:18;;;;;;;5.63;1.50;;;;;;;4.34;75.73;101172.56;6104422;19;20072;-73
2023/02/25 01:33:23;;;;;;;8.35;2.58;;;;;;;4.32;76.41;101176.94;6103646;19;20071;-74
2023/02/25 01:35:28;;;;;;;9.13;2.70;;;;;;;4.32;75.81;101178.69;6103363;19;20014;-74
2023/02/25 01:37:33;;;;;;;7.60;2.10;;;;;;;4.39;75.10;101164.72;6104783;19;20018;-73
2023/02/25 01:39:38;;;;;;;11.88;2.83;;;;;;;4.35;75.06;101176.91;6102199;19;20031;-73
2023/02/25 01:41:45;;;;;;;13.77;2.40;;;;;;;4.40;74.38;101175.13;6105787;19;20014;-73
2023/02/25 01:44:10;;;;;;;13.18;2.22;;;;;;;4.36;75.34;101173.44;6104391;19;20014;-73
2023/02/25 01:46:15;;;;;;;12.20;2.03;;;;;;;4.33;75.80;101173.47;6106038;19;20372;-74
2023/02/25 01:48:23;;;;;;;13.52;2.65;;;;;;;4.36;75.33;101165.63;6105251;19;20018;-74
2023/02/25 01:50:34;;;;;;;11.55;2.47;;;;;;;4.30;76.28;101170.88;6107144;19;20006;-74
2023/02/25 01:52:44;;;;;;;16.23;2.67;;;;;;;4.32;76.06;101176.94;6100506;19;20026;-75
2023/02/25 01:54:54;;;;;;;15.38;2.83;;;;;;;4.36;76.08;101165.63;6077591;19;20007;-73
2023/02/25 01:56:59;;;;;;;14.07;2.28;;;;;;;4.41;76.08;101162.97;6103090;19;20015;-75
2023/02/25 01:59:04;;;;;;;10.77;2.90;;;;;;;4.38;76.67;101163.88;6102080;19;20467;-73
2023/02/25 02:01:15;;;;;;;18.55;3.88;;;;;;;4.34;77.03;101158.69;6106826;19;20095;-74
2023/02/25 02:03:20;;;;;;;13.40;2.88;;;;;;;4.43;76.25;101165.59;6102690;19;20018;-73
2023/02/25 02:05:31;;;;;;;9.90;2.92;;;;;;;4.44;76.46;101160.34;6101318;19;20007;-73
2023/02/25 02:07:37;;;;;;;15.70;3.60;;;;;;;4.46;76.85;101173.34;6102279;19;20006;-73
2023/02/25 02:09:54;;;;;;;16.67;2.92;;;;;;;4.51;76.04;101180.22;6083748;19;20017;-73
2023/02/25 02:12:01;;;;;;;10.55;3.22;;;;;;;4.42;76.20;101184.66;6100696;19;20035;-75
2023/02/25 02:14:08;;;;;;;6.22;2.20;;;;;;;4.27;77.20;101193.47;6104065;19;20059;-72
2023/02/25 02:16:46;;;;;;;10.63;2.60;;;;;;;4.17;77.77;101182.28;6098934;19;20038;-73
2023/02/25 02:18:57;;;;;;;9.07;2.50;;;;;;;4.03;77.96;101176.31;6094511;19;20021;-75
2023/02/25 02:21:21;;;;;;;8.65;2.38;;;;;;;3.91;78.18;101161.69;6101587;19;20027;-73
2023/02/25 02:23:48;;;;;;;6.28;1.75;;;;;;;3.92;77.33;101171.19;6105009;19;20031;-75
2023/02/25 02:26:34;;;;;;;9.73;2.10;;;;;;;3.86;77.72;101174.72;6105807;19;20034;-73
2023/02/25 02:29:21;;;;;;;11.93;2.15;;;;;;;3.88;76.89;101167.78;6102864;19;20035;-75
2023/02/25 02:31:49;;;;;;;5.45;1.60;;;;;;;4.00;75.39;101165.94;6102997;19;20554;-75
2023/02/25 02:34:05;;;;;;;8.70;2.13;;;;;;;4.00;75.61;101174.59;6106163;19;20117;-75
2023/02/25 02:36:22;;;;;;;15.73;2.47;;;;;;;4.06;75.07;101168.53;6105022;19;20035;-75
2023/02/25 02:38:37;;;;;;;12.48;2.53;;;;;;;4.13;74.60;101163.25;6106687;19;20046;-74
2023/02/25 02:40:52;;;;;;;9.20;2.65;;;;;;;4.18;74.53;101176.19;6108261;19;20029;-74
2023/02/25 02:43:08;;;;;;;8.18;2.28;;;;;;;4.16;74.82;101180.53;6102667;19;20006;-74
2023/02/25 02:45:18;;;;;;;13.05;3.13;;;;;;;4.17;74.91;101172.75;6103095;19;20011;-74
2023/02/25 02:47:30;;;;;;;13.00;2.90;;;;;;;4.15;75.23;101171.03;6105617;19;20369;-74
2023/02/25 02:49:42;;;;;;;8.55;2.63;;;;;;;4.19;76.03;101180.53;6103254;19;20015;-75
2023/02/25 02:51:55;;;;;;;5.63;2.17;;;;;;;4.24;76.08;101180.47;6079504;19;20436;-75
2023/02/25 02:54:02;;;;;;;;;;;;;;;4.23;76.24;101171.81;6099711;19;20173;-76
2023/02/25 02:56:15;;;;;;;11.85;3.28;;;;;;;4.25;76.79;101179.63;6102464;19;19910;-75
2023/02/25 02:58:25;;;;;;;12.80;2.63;;;;;;;4.24;77.20;101183.97;6098035;19;20010;-74
2023/02/25 03:00:37;;;;;;;6.63;2.00;;;;;;;4.24;77.89;101186.56;6102328;19;20221;-75
2023/02/25 03:02:48;;;;;;;10.38;3.00;;;;;;;4.26;78.40;101190.00;6098289;19;20513;-74
2023/02/25 03:04:56;;;;;;;14.95;2.58;;;;;;;4.31;78.18;101184.75;6093239;19;20474;-75
2023/02/25 03:07:04;;;;;;;15.73;2.95;;;;;;;4.30;76.79;101191.69;6082706;19;20101;-76
2023/02/25 03:09:12;;;;;;;9.52;2.72;;;;;;;4.32;76.98;101181.28;6077225;19;20091;-74
2023/02/25 03:11:17;;;;;;;11.02;2.67;;;;;;;4.37;75.51;101190.78;6099872;19;20023;-73
2023/02/25 03:13:23;;;;;;;7.63;2.20;;;;;;;4.34;74.67;101195.13;6102261;19;20090;-73
2023/02/25 03:15:30;;;;;;;7.65;2.20;;;;;;;4.34;74.79;101187.31;6079660;19;20019;-75
2023/02/25 03:17:41;;;;;;;8.20;2.13;;;;;;;4.25;75.63;101200.44;6101992;19;20019;-73
2023/02/25 03:19:53;;;;;;;11.68;2.50;;;;;;;4.22;76.32;101192.66;6104350;19;20011;-75
2023/02/25 03:22:05;;;;;;;4.35;1.30;;;;;;;4.13;76.09;101190.97;6101144;19;20010;-74
2023/02/25 03:24:21;;;;;;;10.15;2.85;;;;;;;3.99;76.54;101188.50;6108039;19;21308;-75
2023/02/25 03:26:30;;;;;;;6.95;2.45;;;;;;;3.97;76.66;101195.44;6106994;19;20486;-75
2023/02/25 03:28:36;;;;;;;8.70;2.45;;;;;;;4.06;75.16;101200.59;6106687;19;20043;-75
2023/02/25 03:30:50;;;;;;;6.20;2.55;;;;;;;4.01;76.04;101204.94;6109713;19;20014;-75
2023/02/25 03:33:00;;;;;;;6.18;2.60;;;;;;;3.90;77.61;101205.03;6104845;19;20027;-75
2023/02/25 03:35:11;;;;;;;7.25;2.35;;;;;;;3.79;78.93;101198.16;6086126;19;20015;-75
2023/02/25 03:37:22;;;;;;;6.57;2.17;;;;;;;3.73;79.50;101186.94;6106230;19;20014;-75
2023/02/25 03:39:30;;;;;;;8.82;2.42;;;;;;;3.76;77.84;101191.25;6110415;19;20399;-75
2023/02/25 03:41:40;;;;;;;13.32;2.58;;;;;;;3.77;77.15;101184.34;6109932;19;20003;-75
2023/02/25 03:43:50;;;;;;;11.35;3.10;;;;;;;3.82;76.40;101185.13;6107698;19;20014;-73
2023/02/25 03:45:58;;;;;;;6.03;2.72;;;;;;;3.85;75.64;101186.00;6103651;19;20102;-73
2023/02/25 03:48:04;;;;;;;11.35;2.58;;;;;;;3.86;75.89;101185.13;6108262;19;20029;-74
2023/02/25 03:50:17;;;;;;;9.55;2.58;;;;;;;3.86;76.37;101182.50;6108896;19;20463;-73
2023/02/25 03:52:28;;;;;;;16.05;2.45;;;;;;;3.94;75.49;101185.91;6101280;19;20003;-74
2023/02/25 03:54:33;;;;;;;9.88;2.75;;;;;;;3.96;75.57;101184.19;6106914;19;20025;-73
2023/02/25 03:56:49;;;;;;;9.60;2.15;;;;;;;4.04;75.22;101191.06;6108254;19;20016;-72
2023/02/25 03:58:56;;;;;;;9.30;2.67;;;;;;;4.15;73.83;101184.03;6099799;19;20011;-74
2023/02/25 04:01:04;;;;;;;10.25;3.35;;;;;;;4.22;73.83;101190.06;6104359;19;20043;-73
2023/02/25 04:03:08;;;;;;;12.93;2.92;;;;;;;4.26;74.17;101190.00;6104912;19;20038;-75
2023/02/25 04:05:17;;;;;;;13.48;2.53;;;;;;;4.22;74.85;101188.31;6104791;19;20049;-76
2023/02/25 04:07:22;;;;;;;8.73;2.55;;;;;;;4.18;75.45;101197.84;6100735;19;20683;-76
2023/02/25 04:09:27;;;;;;;8.30;2.90;;;;;;;4.18;75.73;101194.41;6102670;19;20027;-76
2023/02/25 04:11:35;;;;;;;10.60;2.45;;;;;;;4.16;75.82;101189.22;6104429;19;20021;-75
2023/02/25 04:13:40;;;;;;;18.52;2.63;;;;;;;4.10;75.86;101185.81;6086566;19;20014;-76
2023/02/25 04:15:46;;;;;;;9.10;2.67;;;;;;;4.08;75.46;101198.84;6104884;19;20036;-73
2023/02/25 04:17:51;;;;;;;17.08;3.08;;;;;;;4.06;75.14;101195.38;6105517;19;20410;-75
2023/02/25 04:19:56;;;;;;;10.02;3.03;;;;;;;4.08;74.93;101192.75;6104789;19;20011;-73
2023/02/25 04:22:04;;;;;;;5.60;2.47;;;;;;;4.15;74.16;101197.03;6106643;19;20094;-72
2023/02/25 04:24:11;;;;;;;11.57;3.03;;;;;;;4.25;73.69;101216.03;6106322;19;20046;-73
2023/02/25 04:26:15;;;;;;;9.00;2.10;;;;;;;4.25;74.12;101222.09;6083158;19;20094;-74
2023/02/25 04:28:21;;;;;;;8.32;2.30;;;;;;;4.15;74.41;101212.63;6106486;19;20006;-75
2023/02/25 04:30:28;;;;;;;3.63;1.83;;;;;;;4.09;74.30;101220.50;6104864;19;20007;-75
2023/02/25 04:32:33;;;;;;;11.52;2.25;;;;;;;4.07;73.23;101217.03;6105279;19;20109;-73
2023/02/25 04:34:38;;;;;;;7.28;1.85;;;;;;;4.09;73.34;101217.91;6105709;19;20132;-74
2023/02/25 04:36:43;;;;;;;13.35;2.35;;;;;;;4.07;73.68;101222.25;6103431;19;20360;-73
2023/02/25 04:38:51;;;;;;;13.38;2.38;;;;;;;4.14;73.21;101237.78;6076087;19;20455;-75
2023/02/25 04:40:56;;;;;;;10.93;2.17;;;;;;;4.24;72.56;101241.19;6104989;19;20018;-75
2023/02/25 04:43:01;;;;;;;5.10;1.58;;;;;;;4.09;74.96;101236.97;6104553;19;20447;-75
2023/02/25 04:45:06;;;;;;;9.27;2.00;;;;;;;3.88;75.53;101231.91;6103448;19;20007;-75
2023/02/25 04:47:12;;;;;;;5.75;1.52;;;;;;;3.79;76.40;101237.16;6102920;19;20508;-75
2023/02/25 04:49:17;;;;;;;4.47;1.60;;;;;;;3.81;75.89;101230.22;6104979;19;20016;-74
2023/02/25 04:51:22;;;;;;;6.45;2.00;;;;;;;3.79;75.69;101231.97;6101919;19;20478;-73
2023/02/25 04:53:27;;;;;;;3.85;1.83;;;;;;;3.82;75.17;101231.94;6100145;19;20011;-74
2023/02/25 04:55:38;;;;;;;5.45;1.90;;;;;;;3.83;74.29;101225.88;6102519;19;20461;-75
2023/02/25 04:57:43;;;;;;;6.88;2.00;;;;;;;3.81;74.78;101236.28;6103113;19;20466;-75
2023/02/25 04:59:49;;;;;;;7.78;1.63;;;;;;;3.85;74.83;101240.59;6103105;19;20082;-74
2023/02/25 05:01:54;;;;;;;8.98;1.60;;;;;;;3.86;74.97;101226.72;6101213;19;20380;-73
2023/02/25 05:03:59;;;;;;;9.35;1.73;;;;;;;3.89;74.85;101234.50;6100116;19;20010;-74
2023/02/25 05:06:05;;;;;;;9.25;1.95;;;;;;;3.90;75.34;101225.84;6081514;19;20025;-73
2023/02/25 05:08:11;;;;;;;10.02;2.65;;;;;;;3.91;76.03;101235.34;6096863;19;20038;-75
2023/02/25 05:10:16;;;;;;;10.20;1.95;;;;;;;3.99;75.88;101230.09;6101491;19;20070;-76
2023/02/25 05:12:24;;;;;;;15.07;2.80;;;;;;;4.02;75.81;101234.41;6104833;19;20082;-74
2023/02/25 05:14:30;;;;;;;8.23;2.00;;;;;;;4.13;74.76;101240.38;6106307;19;20558;-76
2023/02/25 05:16:37;;;;;;;9.93;2.00;;;;;;;4.14;74.80;101231.72;6102613;19;20010;-75
2023/02/25 05:18:44;;;;;;;10.13;2.28;;;;;;;4.17;74.58;101235.16;6085116;19;20372;-75
2023/02/25 05:20:50;;;;;;;9.00;2.58;;;;;;;4.17;74.23;101239.50;6100428;19;20007;-74
2023/02/25 05:22:55;;;;;;;10.90;2.35;;;;;;;4.12;74.64;101231.72;6100988;19;20042;-75
2023/02/25 05:25:02;;;;;;;6.15;2.55;;;;;;;4.08;74.45;101235.25;6103861;19;20102;-73
2023/02/25 05:27:08;;;;;;;15.70;2.83;;;;;;;4.08;74.59;101242.16;6102211;19;20018;-75
2023/02/25 05:29:16;;;;;;;8.45;2.00;;;;;;;4.00;74.65;101239.59;6082381;19;20013;-75
2023/02/25 05:31:22;;;;;;;17.63;4.20;;;;;;;4.08;73.55;101237.84;6098706;19;20039;-75
2023/02/25 05:33:27;;;;;;;10.27;2.20;;;;;;;4.01;74.28;101237.91;6105316;19;20015;-75
2023/02/25 05:35:36;;;;;;;13.45;2.53;;;;;;;4.03;74.15;101238.72;6104898;19;20011;-76
2023/02/25 05:37:42;;;;;;;8.85;2.15;;;;;;;4.02;74.25;101230.06;6099194;19;20025;-74
2023/02/25 05:39:50;;;;;;;9.85;2.88;;;;;;;4.07;74.59;101232.66;6101605;19;20025;-73
2023/02/25 05:41:55;;;;;;;16.80;3.22;;;;;;;3.94;75.26;101232.72;6078796;19;20010;-74
2023/02/25 05:44:00;;;;;;;11.68;3.17;;;;;;;3.94;75.56;101232.72;6101059;19;20685;-76
2023/02/25 05:46:12;;;;;;;11.05;2.65;;;;;;;3.92;76.15;101233.59;6102114;19;20011;-74
2023/02/25 05:48:19;;;;;;;8.85;2.75;;;;;;;3.90;75.96;101237.97;6101021;19;20014;-74
2023/02/25 05:50:24;;;;;;;13.50;3.17;;;;;;;3.86;76.10;101249.25;6099180;19;20019;-76
2023/02/25 05:52:31;;;;;;;17.02;2.88;;;;;;;3.79;76.59;101245.84;6099657;19;21561;-75
2023/02/25 05:54:38;;;;;;;17.38;3.67;;;;;;;3.86;76.49;101250.09;6099981;19;20038;-73
2023/02/25 05:56:43;;;;;;;10.70;3.58;;;;;;;3.89;76.17;101254.44;6100999;19;20483;-74
2023/02/25 05:58:49;;;;;;;9.82;2.92;;;;;;;3.86;76.58;101244.91;6098037;19;20006;-75
2023/02/25 06:00:54;;;;;;;17.63;3.92;;;;;;;3.93;75.83;101245.75;6081534;19;20467;-76
2023/02/25 06:03:02;;;;;;;11.40;2.60;;;;;;;3.94;76.17;101243.13;6081290;19;20018;-75
2023/02/25 06:05:08;;;;;;;14.82;3.83;;;;;;;4.02;75.77;101258.66;6102900;19;20146;-75
2023/02/25 06:07:13;;;;;;;11.15;2.53;;;;;;;4.02;76.26;101255.22;6098200;19;20520;-74
2023/02/25 06:09:20;;;;;;;12.35;2.92;;;;;;;4.05;76.01;101247.38;6076867;19;20014;-76
2023/02/25 06:11:26;;;;;;;11.75;2.70;;;;;;;3.99;76.51;101252.63;6082215;19;20010;-75
2023/02/25 06:13:32;;;;;;;8.13;2.33;;;;;;;3.91;76.92;101253.53;6098649;19;20380;-75
2023/02/25 06:15:39;;;;;;;7.45;1.98;;;;;;;3.87;75.98;101253.56;6103156;19;20478;-74
2023/02/25 06:17:44;;;;;;;7.28;2.30;;;;;;;3.82;75.92;101248.41;6098042;19;20080;-76
2023/02/25 06:19:53;;;;;;;9.63;2.10;;;;;;;3.74;76.14;101245.88;6101042;19;20409;-76
2023/02/25 06:21:58;;;;;;;9.07;2.00;;;;;;;3.66;76.89;101258.03;6097833;19;20014;-76
2023/02/25 06:24:04;;;;;;;16.17;3.50;;;;;;;3.64;77.19;101253.72;6102074;19;20011;-76
2023/02/25 06:26:11;;;;;;;8.15;1.90;;;;;;;3.57;77.56;101262.41;6102443;19;20014;-76
2023/02/25 06:28:16;;;;;;;14.52;2.38;;;;;;;3.57;78.02;101259.81;6100669;19;20015;-76
2023/02/25 06:30:21;;;;;;;8.13;2.10;;;;;;;3.51;78.00;101260.72;6076908;19;20023;-76
2023/02/25 06:32:25;;;;;;;7.25;2.15;;;;;;;3.52;78.09;101262.44;6100074;19;20022;-73
2023/02/25 06:34:34;;;;;;;11.98;2.28;;;;;;;3.57;77.77;101272.81;6101730;19;20547;-76
2023/02/25 06:36:41;;;;;;;7.70;2.47;;;;;;;3.59;77.42;101265.88;6102622;19;20019;-74
2023/02/25 06:38:46;;;;;;;6.50;2.00;;;;;;;3.56;77.51;101268.50;6100580;19;21090;-74
2023/02/25 06:40:52;;;;;;;11.52;2.75;;;;;;;3.60;76.85;101272.78;6094634;19;20037;-74
2023/02/25 06:42:57;;;;;;;9.25;2.30;;;;;;;3.71;75.67;101273.59;6079829;19;20550;-75
2023/02/25 06:45:02;;;;;;;8.13;2.78;;;;;;;3.83;75.18;101270.06;6102345;19;20540;-73
2023/02/25 06:47:07;;;;;;;10.27;3.05;;;;;;;3.83;75.48;101275.28;6080382;19;21168;-74
2023/02/25 06:49:12;;;;;;;16.85;2.67;;;;;;;3.87;74.80;101280.44;6097354;19;20010;-75
2023/02/25 06:51:18;;;;;;;11.85;2.35;;;;;;;4.02;72.39;101296.81;6100409;19;20039;-75
2023/02/25 06:53:26;;;;;;;7.47;1.85;;;;;;;3.92;73.44;101298.59;6098941;19;20463;-75
2023/02/25 06:55:30;;;;;;;10.38;1.92;;;;;;;3.87;74.93;101297.75;6098944;19;20353;-75
2023/02/25 06:57:36;;;;;;;6.88;1.83;;;;;;;3.76;76.38;101305.63;6079474;19;20639;-75
2023/02/25 06:59:41;;;;;;;5.63;1.88;;;;;;;3.74;77.11;101307.38;6080521;19;20082;-74
2023/02/25 07:01:46;;;;;;;7.97;2.13;;;;;;;3.72;78.51;101301.31;6099873;19;20163;-75
2023/02/25 07:03:51;;;;;;;8.70;2.78;;;;;;;3.69;79.31;101316.94;6101013;19;20498;-75
2023/02/25 07:05:56;;;;;;;9.48;2.08;;;;;;;3.68;79.69;101317.78;6101620;19;20048;-75
2023/02/25 07:08:01;;;;;;;6.25;2.63;;;;;;;3.67;80.39;101323.88;6099718;19;21085;-75
2023/02/25 07:10:13;;;;;;;8.52;2.08;;;;;;;3.66;80.97;101341.22;6100043;19;20014;-76
2023/02/25 07:12:18;;;;;;;11.45;2.03;;;;;;;3.64;81.97;101339.50;6101661;19;20014;-73
2023/02/25 07:14:23;;;;;;;7.88;1.80;;;;;;;3.46;82.96;101330.03;6103597;19;20015;-73
2023/02/25 07:16:28;;;;;;;7.47;2.05;;;;;;;3.41;82.29;101331.75;6076380;19;20044;-74
2023/02/25 07:18:33;;;;;;;7.72;2.17;;;;;;;3.36;81.68;101347.34;6099346;19;20033;-73
2023/02/25 07:20:40;;;;;;;11.07;2.40;;;;;;;3.42;81.70;101331.78;6102845;19;20501;-74
2023/02/25 07:22:45;;;;;;;6.47;2.22;;;;;;;3.52;79.18;101312.66;6104200;19;20002;-73
2023/02/25 07:24:50;;;;;;;8.27;1.77;;;;;;;3.54;78.97;101317.84;6098961;19;20022;-76
2023/02/25 07:26:57;;;;;;;7.18;2.50;;;;;;;3.56;80.13;101323.06;6103660;19;20010;-76
2023/02/25 07:29:02;;;;;;;9.80;2.17;;;;;;;3.56;80.04;101323.06;6102614;19;20007;-75
2023/02/25 07:31:13;;;;;;;5.70;1.90;;;;;;;3.59;79.74;101323.03;6100802;19;20034;-74
2023/02/25 07:33:18;;;;;;;12.07;2.50;;;;;;;3.61;79.30;101327.38;6103555;19;20074;-76
2023/02/25 07:35:23;;;;;;;7.65;2.22;;;;;;;3.64;79.52;101331.69;6099393;19;20010;-75
2023/02/25 07:37:28;;;;;;;12.68;2.50;;;;;;;3.60;79.87;101322.16;6076512;19;20014;-74
2023/02/25 07:39:33;;;;;;;5.88;2.38;;;;;;;3.59;80.23;101333.44;6096746;19;20459;-76
2023/02/25 07:41:42;;;;;;;8.85;1.92;;;;;;;3.63;80.13;101330.81;6095330;19;20552;-73
2023/02/25 07:43:50;;;;;;;6.00;1.95;;;;;;;3.61;80.39;101329.97;6097136;19;20015;-76
2023/02/25 07:45:58;;;;;;;6.95;1.63;;;;;;;3.68;79.53;101331.66;6093920;19;20003;-77
2023/02/25 07:48:03;;;;;;;11.13;1.95;;;;;;;3.71;80.06;101329.06;6098056;19;20342;-75
2023/02/25 07:50:10;;;;;;;14.43;3.20;;;;;;;3.76;80.08;101331.63;6096703;19;20030;-76
2023/02/25 07:52:16;;;;;;;8.68;2.22;;;;;;;3.83;80.04;101338.53;6095206;19;20015;-76
2023/02/25 07:54:22;;;;;;;8.60;2.63;;;;;;;3.86;80.41;101335.91;6093834;19;20579;-76
2023/02/25 07:56:29;;;;;;;17.05;2.60;;;;;;;3.96;79.78;101347.13;6095321;19;20015;-75
2023/02/25 07:58:35;;;;;;;16.40;4.05;;;;;;;4.04;79.24;101340.16;6095516;19;20014;-75
2023/02/25 08:00:45;;;;;;;13.73;2.55;;;;;;;4.08;79.57;101339.28;6097966;19;20014;-75
2023/02/25 08:02:50;;;;;;;14.85;2.88;;;;;;;4.15;79.32;101345.28;6092147;19;20381;-75
2023/02/25 08:04:56;;;;;;;12.95;3.17;;;;;;;4.30;78.54;101334.78;6095989;19;20087;-75
2023/02/25 08:07:02;;;;;;;15.68;2.88;;;;;;;4.54;76.31;101345.91;6095304;19;20361;-75
2023/02/25 08:09:07;;;;;;;13.40;3.30;;;;;;;4.69;75.17;101342.34;6093889;19;22252;-74
2023/02/25 08:11:14;;;;;;;12.40;3.00;;;;;;;4.79;75.17;101339.63;6104492;19;20451;-74
2023/02/25 08:13:19;;;;;;;11.50;3.35;;;;;;;4.89;73.69;101342.13;6082117;19;20017;-74
2023/02/25 08:15:24;;;;;;;15.02;3.10;;;;;;;4.91;73.67;101337.78;6102416;19;20006;-74
2023/02/25 08:17:35;;;;;;;13.68;3.17;;;;;;;4.84;74.44;101345.66;6081986;19;20085;-78
2023/02/25 08:19:42;;;;;;;13.10;2.40;;;;;;;4.84;73.31;101347.38;6102434;19;20007;-74
2023/02/25 08:21:47;;;;;;;7.40;2.63;;;;;;;4.90;73.23;101356.88;6100432;19;20003;-74
2023/02/25 08:23:52;;;;;;;14.95;3.28;;;;;;;4.97;73.14;101354.22;6105166;19;20018;-75
2023/02/25 08:25:59;;;;;;;14.05;2.83;;;;;;;5.06;73.14;101356.75;6100965;19;20014;-75
2023/02/25 08:28:04;;;;;;;21.65;3.45;;;;;;;5.05;72.81;101362.84;6101805;19;20015;-76
2023/02/25 08:30:12;;;;;;;10.98;2.83;;;;;;;5.02;71.68;101352.44;6106868;19;20006;-76
2023/02/25 08:32:17;;;;;;;18.10;3.28;;;;;;;5.02;71.03;101360.25;6104920;19;20043;-75
2023/02/25 08:34:24;;;;;;;8.98;2.45;;;;;;;5.07;71.73;101360.19;6102501;19;20014;-76
2023/02/25 08:36:31;;;;;;;10.27;2.50;;;;;;;5.17;71.34;101367.06;6103099;19;20015;-77
2023/02/25 08:38:37;;;;;;;15.10;2.83;;;;;;;5.23;71.70;101359.16;6102396;19;20106;-74
2023/02/25 08:40:43;;;;;;;18.42;3.42;;;;;;;5.34;70.79;101368.63;6097776;19;20017;-76
2023/02/25 08:42:48;;;;;;;14.07;2.88;;;;;;;5.42;70.70;101361.59;6095787;19;20011;-75
2023/02/25 08:44:53;;;;;;;10.77;2.70;;;;;;;5.52;69.79;101362.34;6101613;19;20082;-75
2023/02/25 08:46:58;;;;;;;16.30;2.60;;;;;;;5.59;69.84;101357.06;6101818;19;20015;-75
2023/02/25 08:49:03;;;;;;;14.45;2.20;;;;;;;5.71;70.43;101359.53;6102801;19;20006;-75
2023/02/25 08:51:13;;;;;;;13.88;2.90;;;;;;;5.77;70.37;101360.34;6100372;19;20031;-75
2023/02/25 08:53:19;;;;;;;13.73;3.03;;;;;;;5.89;70.11;101357.56;6095567;19;20041;-74
2023/02/25 08:55:24;;;;;;;8.93;2.60;;;;;;;6.02;69.58;101363.50;6104690;19;20035;-74
2023/02/25 08:57:29;;;;;;;10.73;2.58;;;;;;;6.01;69.21;101364.41;6105326;19;20011;-76
2023/02/25 08:59:34;;;;;;;6.60;2.50;;;;;;;6.20;69.37;101375.44;6104980;19;20023;-75
2023/02/25 09:01:47;;;;;;;16.90;3.35;;;;;;;6.14;67.37;101363.34;6103760;19;20494;-74
2023/02/25 09:03:57;;;;;;;12.83;3.57;;;;;;;5.84;67.09;101360.22;6081569;19;20034;-74
2023/02/25 09:06:02;;;;;;;11.75;3.85;;;;;;;5.80;67.67;101362.91;6104933;19;20011;-74
2023/02/25 09:08:12;;;;;;;9.40;2.47;;;;;;;5.79;68.40;101369.84;6103363;19;20002;-74
2023/02/25 09:10:17;;;;;;;14.63;3.17;;;;;;;5.73;68.63;101367.31;6087625;19;20039;-73
2023/02/25 09:12:22;;;;;;;9.70;2.95;;;;;;;5.68;68.87;101367.38;6082881;19;20707;-74
2023/02/25 09:14:28;;;;;;;11.80;2.80;;;;;;;5.64;68.68;101372.66;6086184;19;20111;-73
2023/02/25 09:16:34;;;;;;;12.88;3.17;;;;;;;5.60;69.58;101384.84;6103911;19;20006;-75
2023/02/25 09:18:39;;;;;;;11.82;2.83;;;;;;;5.56;68.58;101385.78;6078718;19;20035;-73
2023/02/25 09:20:45;;;;;;;17.17;3.80;;;;;;;5.57;69.52;101382.28;6076659;19;20020;-73
2023/02/25 09:22:50;;;;;;;12.52;3.22;;;;;;;5.56;70.17;101393.59;6100876;19;20007;-73
2023/02/25 09:24:58;;;;;;;14.32;2.90;;;;;;;5.64;70.62;101404.78;6101002;19;20019;-74
2023/02/25 09:27:06;;;;;;;16.33;3.85;;;;;;;5.63;71.89;101415.22;6104403;19;20465;-74
2023/02/25 09:29:12;;;;;;;15.00;3.03;;;;;;;5.41;74.71;101405.03;6084661;19;20014;-76
2023/02/25 09:31:18;;;;;;;12.43;2.92;;;;;;;5.37;75.36;101410.28;6081262;19;20019;-75
2023/02/25 09:33:23;;;;;;;13.18;4.00;;;;;;;5.33;75.85;101413.81;6100080;19;20015;-75
2023/02/25 09:35:28;;;;;;;11.88;3.45;;;;;;;5.15;76.35;101439.16;6099862;19;20343;-75
2023/02/25 09:37:35;;;;;;;13.20;2.58;;;;;;;5.06;78.38;101436.63;6099046;19;20277;-76
2023/02/25 09:39:44;;;;;;;12.05;3.60;;;;;;;4.71;79.68;101461.16;6098005;19;20017;-76
2023/02/25 09:41:59;;;;;;;7.07;2.40;;;;;;;4.39;81.78;101457.00;6097969;19;20351;-77
2023/02/25 09:44:07;;;;;;;9.07;2.35;;;;;;;4.38;82.10;101460.50;6097995;19;20155;-76
2023/02/25 09:46:17;;;;;;;9.70;2.70;;;;;;;4.27;83.58;101454.50;6101976;19;20014;-73
2023/02/25 09:48:29;;;;;;;14.68;2.97;;;;;;;4.38;83.57;101460.50;6078523;19;20019;-74
2023/02/25 09:50:40;;;;;;;9.52;2.30;;;;;;;4.38;83.22;101449.22;6100309;19;20470;-75
2023/02/25 09:52:49;;;;;;;13.15;3.80;;;;;;;4.25;83.01;101453.63;6093572;19;20094;-73
2023/02/25 09:54:59;;;;;;;10.20;2.40;;;;;;;4.68;82.59;101455.97;6096666;19;20010;-73
2023/02/25 09:57:08;;;;;;;8.60;2.05;;;;;;;5.02;82.02;101446.19;6100371;19;20006;-75